Main page
METAR-TAF:

METAR-TAF

Airports :

Ingeniero Aeronáutico Ambrosio L.V. Taravella International Airport

Córdoba, Argentina

latitude: 31-19S, longitude: 064-13W, elevation: 484 m

Current weather observation

The report was made 30 minutes ago, at 11:00 UTC
Wind 4 kt from the North/Northwest
Temperature 7°C
Humidity 81%
Pressure 1013 hPa
Visibility 10 km or more
no clouds below 1500 m and no cumulonimbus

METAR: SACO 281100Z 34004KT CAVOK 07/04 Q1013 NOSIG

Time: 08:30 (11:30 UTC)

Forecast

The report was made 6 hours and 30 minutes ago, at 05:00 UTC
Forecast valid from 28 at 06 UTC to 29 at 06 UTC
Wind 3 kt from variable directions
Visibility 10 km or more
no clouds below 1500 m and no cumulonimbus
Becoming
from 28 at 21 UTC to 28 at 23 UTC
Wind 5 kt from the North

TAF: SACO 280500Z 2806/2906 VRB03KT CAVOK TX25/2818Z TN07/2810Z BECMG 2821/2823 36005KT

Weather observations and forecasts of more than 4000 airports (METAR and TAF reports).

The available stations are represented by yellow and red dots on the map.

Hover mouse over dot to see the name of the station.

Then click to see weather observations and forecasts.

To change the map : click on the green buttons with a black cross to zoom in, on the green button with a dash to zoom out, or on the green arrows for adjacent maps.


METAR-TAF: